VOCB

Coimbatore International Airport

Airport
ICAO code
VOCB
IATA Code
CJB
Summary
ICAO Region
APAC
ICAO Territory
Location

Peelamedu, Tamil Nadu

Serving
Coimbatore
Elevation
1324 ft
Coordinates
11° 1' 49" N , 77° 2' 20" E
KCC
Metar
Observation
VOCB 270400Z 09004KT 2500 BR SCT012 23/20 Q1016 NOSIG
Station
Coimbatore / Peelamedu
Date/Time
2023-01-27 04:00:00
Wind direction
90°
Wind speed
04 kts
Lowest cloud amount
scattered clouds
Temperature
23°C
Dew point
20°C
Humidity
83%
QNH
1016 hPa
Weather condition
n/a

Coimbatore International Airport is located at Peelamedu, approximately 11 km from the central business district of Coimbatore, a large city in Tamil Nadu.

Climatology

Tropical Savanna climate (Köppen climate classification Aw) - monthly mean temperatures above 18°C, and a pronounced dry season. A Tropical Savanna climate has more pronounced dry seasons than a Tropical Monsoon climate.

Airport map

Aerial View

SKYbrary Partners:

Safety knowledge contributed by: